NKS221 KLAX-KPHX
Flight info
| Callsign | NKS221 |
|---|---|
| Flight time | 0h 56m |
| Altitude | 35000 |
| Route | DOTSS2 CNERY BLH HYDRR1 |
| Aircraft | A319/M-SDE3FGHIRWY/LB1 |
Departure
| Time | 2026-05-04 02:13 |
|---|---|
| Airport | Los Angeles International Airport (KLAX) |
Arrival
| Time | 2026-05-04 03:09 |
|---|---|
| Airport | Phoenix Sky Harbor International Airport (KPHX) |
| Time | Latitude | Longitude | Altitude | Speed | Heading |
|---|---|---|---|---|---|
| 2026-05-04 01:58 | 33.94687 | -118.40183 | 127 ft | 0 kts | 84° |
| 2026-05-04 02:06 | 33.94686 | -118.40202 | 127 ft | 3 kts | 84° |
| 2026-05-04 02:06 | 33.94681 | -118.40233 | 127 ft | 3 kts | 59° |
| 2026-05-04 02:06 | 33.94660 | -118.40248 | 127 ft | 3 kts | 5° |
| 2026-05-04 02:07 | 33.94652 | -118.40247 | 127 ft | 0 kts | 349° |
| 2026-05-04 02:10 | 33.94667 | -118.40250 | 127 ft | 10 kts | 351° |
| 2026-05-04 02:10 | 33.94776 | -118.40268 | 127 ft | 10 kts | 340° |
| 2026-05-04 02:10 | 33.94857 | -118.40288 | 125 ft | 13 kts | 3° |
| 2026-05-04 02:11 | 33.94908 | -118.40200 | 123 ft | 15 kts | 84° |
| 2026-05-04 02:11 | 33.94920 | -118.40065 | 122 ft | 17 kts | 82° |
| 2026-05-04 02:11 | 33.94948 | -118.39941 | 119 ft | 5 kts | 41° |
| 2026-05-04 02:11 | 33.94949 | -118.39940 | 119 ft | 0 kts | 36° |
| 2026-05-04 02:12 | 33.94953 | -118.39937 | 119 ft | 2 kts | 32° |
| 2026-05-04 02:12 | 33.95015 | -118.39927 | 118 ft | 12 kts | 343° |
| 2026-05-04 02:12 | 33.95037 | -118.40011 | 118 ft | 12 kts | 261° |
| 2026-05-04 02:12 | 33.95000 | -118.40368 | 123 ft | 78 kts | 263° |
| 2026-05-04 02:13 | 33.94907 | -118.41267 | 130 ft | 139 kts | 263° |
| 2026-05-04 02:13 | 33.94809 | -118.42464 | 669 ft | 142 kts | 265° |
| 2026-05-04 02:13 | 33.94701 | -118.43640 | 1247 ft | 146 kts | 263° |
| 2026-05-04 02:13 | 33.94573 | -118.44861 | 1896 ft | 149 kts | 262° |
| 2026-05-04 02:14 | 33.94432 | -118.46124 | 2402 ft | 161 kts | 262° |
| 2026-05-04 02:14 | 33.94346 | -118.47518 | 2934 ft | 175 kts | 267° |
| 2026-05-04 02:14 | 33.94291 | -118.49056 | 3453 ft | 191 kts | 267° |
| 2026-05-04 02:14 | 33.94223 | -118.50774 | 3881 ft | 215 kts | 264° |
| 2026-05-04 02:15 | 33.94083 | -118.52628 | 4471 ft | 232 kts | 264° |
| 2026-05-04 02:15 | 33.93923 | -118.54637 | 5049 ft | 251 kts | 264° |
| 2026-05-04 02:15 | 33.93752 | -118.56767 | 5754 ft | 265 kts | 265° |
| 2026-05-04 02:15 | 33.93584 | -118.58993 | 6679 ft | 270 kts | 264° |
| 2026-05-04 02:16 | 33.93210 | -118.61170 | 7629 ft | 270 kts | 244° |
| 2026-05-04 02:16 | 33.92059 | -118.62962 | 8517 ft | 274 kts | 218° |
| 2026-05-04 02:16 | 33.90381 | -118.63957 | 9436 ft | 277 kts | 195° |
| 2026-05-04 02:16 | 33.88448 | -118.64066 | 10311 ft | 282 kts | 179° |
| 2026-05-04 02:17 | 33.86411 | -118.63902 | 10848 ft | 295 kts | 178° |
| 2026-05-04 02:17 | 33.84332 | -118.63415 | 11201 ft | 317 kts | 166° |
| 2026-05-04 02:17 | 33.82281 | -118.62308 | 11526 ft | 336 kts | 152° |
| 2026-05-04 02:17 | 33.80266 | -118.60719 | 11835 ft | 351 kts | 149° |
| 2026-05-04 02:18 | 33.78224 | -118.59033 | 12118 ft | 366 kts | 149° |
| 2026-05-04 02:18 | 33.76068 | -118.57255 | 12519 ft | 378 kts | 149° |
| 2026-05-04 02:18 | 33.73894 | -118.55481 | 13154 ft | 379 kts | 149° |
| 2026-05-04 02:18 | 33.71752 | -118.53655 | 13740 ft | 384 kts | 143° |
| 2026-05-04 02:19 | 33.69915 | -118.51279 | 14282 ft | 397 kts | 130° |
| 2026-05-04 02:19 | 33.68558 | -118.48347 | 14770 ft | 409 kts | 116° |
| 2026-05-04 02:19 | 33.67560 | -118.45103 | 15208 ft | 419 kts | 113° |
| 2026-05-04 02:19 | 33.66621 | -118.41788 | 15711 ft | 425 kts | 114° |
| 2026-05-04 02:20 | 33.65659 | -118.38410 | 16175 ft | 431 kts | 113° |
| 2026-05-04 02:20 | 33.64874 | -118.34914 | 16623 ft | 442 kts | 106° |
| 2026-05-04 02:20 | 33.64446 | -118.31208 | 17053 ft | 452 kts | 98° |
| 2026-05-04 02:21 | 33.64370 | -118.24433 | 17803 ft | 466 kts | 93° |
| 2026-05-04 02:21 | 33.64408 | -118.20506 | 18210 ft | 472 kts | 92° |
| 2026-05-04 02:21 | 33.64436 | -118.16560 | 18641 ft | 479 kts | 92° |
| 2026-05-04 02:21 | 33.64451 | -118.12585 | 19087 ft | 482 kts | 94° |
| 2026-05-04 02:22 | 33.64467 | -118.08528 | 19575 ft | 485 kts | 94° |
| 2026-05-04 02:22 | 33.64458 | -118.04482 | 20060 ft | 487 kts | 93° |
| 2026-05-04 02:22 | 33.64451 | -118.00386 | 20440 ft | 492 kts | 94° |
| 2026-05-04 02:22 | 33.64451 | -117.96260 | 20852 ft | 497 kts | 94° |
| 2026-05-04 02:23 | 33.64451 | -117.92137 | 21334 ft | 499 kts | 93° |
| 2026-05-04 02:23 | 33.64434 | -117.87993 | 21741 ft | 502 kts | 93° |
| 2026-05-04 02:23 | 33.64398 | -117.83760 | 22157 ft | 506 kts | 95° |
| 2026-05-04 02:23 | 33.64112 | -117.79610 | 22551 ft | 506 kts | 102° |
| 2026-05-04 02:24 | 33.63461 | -117.75488 | 23011 ft | 503 kts | 109° |
| 2026-05-04 02:24 | 33.62528 | -117.71434 | 23422 ft | 505 kts | 112° |
| 2026-05-04 02:24 | 33.61510 | -117.67396 | 23800 ft | 508 kts | 114° |
| 2026-05-04 02:24 | 33.60474 | -117.63363 | 24153 ft | 512 kts | 112° |
| 2026-05-04 02:25 | 33.59428 | -117.59269 | 24442 ft | 519 kts | 113° |
| 2026-05-04 02:25 | 33.58380 | -117.55089 | 24839 ft | 522 kts | 112° |
| 2026-05-04 02:25 | 33.57355 | -117.50951 | 25250 ft | 524 kts | 112° |
| 2026-05-04 02:25 | 33.56304 | -117.46700 | 25598 ft | 528 kts | 112° |
| 2026-05-04 02:26 | 33.55253 | -117.42490 | 25911 ft | 532 kts | 112° |
| 2026-05-04 02:26 | 33.54199 | -117.38251 | 26273 ft | 535 kts | 112° |
| 2026-05-04 02:26 | 33.53129 | -117.33970 | 26511 ft | 541 kts | 113° |
| 2026-05-04 02:26 | 33.52058 | -117.29658 | 26783 ft | 544 kts | 113° |
| 2026-05-04 02:27 | 33.51104 | -117.25231 | 27292 ft | 547 kts | 107° |
| 2026-05-04 02:27 | 33.50494 | -117.20756 | 27776 ft | 550 kts | 100° |
| 2026-05-04 02:27 | 33.50244 | -117.16183 | 28130 ft | 554 kts | 95° |
| 2026-05-04 02:27 | 33.50177 | -117.11604 | 28449 ft | 558 kts | 94° |
| 2026-05-04 02:28 | 33.50159 | -117.06921 | 28797 ft | 559 kts | 93° |
| 2026-05-04 02:28 | 33.50148 | -117.02287 | 29233 ft | 558 kts | 92° |
| 2026-05-04 02:28 | 33.50113 | -116.97698 | 29626 ft | 559 kts | 94° |
| 2026-05-04 02:28 | 33.50066 | -116.93018 | 29991 ft | 559 kts | 94° |
| 2026-05-04 02:29 | 33.50004 | -116.88387 | 30335 ft | 561 kts | 95° |
| 2026-05-04 02:29 | 33.49932 | -116.83760 | 30713 ft | 562 kts | 95° |
| 2026-05-04 02:29 | 33.49863 | -116.79080 | 31077 ft | 562 kts | 94° |
| 2026-05-04 02:29 | 33.49784 | -116.74399 | 31404 ft | 564 kts | 95° |
| 2026-05-04 02:30 | 33.49699 | -116.69734 | 31725 ft | 564 kts | 94° |
| 2026-05-04 02:30 | 33.49627 | -116.65064 | 32407 ft | 556 kts | 94° |
| 2026-05-04 02:30 | 33.49551 | -116.60490 | 32991 ft | 550 kts | 95° |
| 2026-05-04 02:30 | 33.49478 | -116.55946 | 33354 ft | 550 kts | 95° |
| 2026-05-04 02:31 | 33.49387 | -116.51354 | 33932 ft | 547 kts | 97° |
| 2026-05-04 02:31 | 33.49310 | -116.46876 | 34484 ft | 544 kts | 95° |
| 2026-05-04 02:31 | 33.49215 | -116.42316 | 34875 ft | 545 kts | 95° |
| 2026-05-04 02:31 | 33.49141 | -116.37781 | 34933 ft | 553 kts | 97° |
| 2026-05-04 02:32 | 33.49008 | -116.28497 | 34908 ft | 564 kts | 95° |
| 2026-05-04 02:32 | 33.48854 | -116.19029 | 34886 ft | 576 kts | 96° |
| 2026-05-04 02:33 | 33.48918 | -116.09412 | 34843 ft | 584 kts | 89° |
| 2026-05-04 02:33 | 33.49991 | -115.99783 | 34805 ft | 587 kts | 78° |
| 2026-05-04 02:34 | 33.52213 | -115.90425 | 34794 ft | 585 kts | 70° |
| 2026-05-04 02:34 | 33.55018 | -115.81232 | 34805 ft | 587 kts | 69° |
| 2026-05-04 02:35 | 33.57787 | -115.72013 | 34833 ft | 585 kts | 70° |
| 2026-05-04 02:35 | 33.60454 | -115.62824 | 34852 ft | 586 kts | 69° |
| 2026-05-04 02:36 | 33.63002 | -115.53597 | 34858 ft | 587 kts | 75° |
| 2026-05-04 02:36 | 33.64621 | -115.44061 | 34853 ft | 586 kts | 84° |
| 2026-05-04 02:37 | 33.65037 | -115.34384 | 34830 ft | 581 kts | 96° |
| 2026-05-04 02:37 | 33.64275 | -115.24854 | 34821 ft | 573 kts | 105° |
| 2026-05-04 02:38 | 33.62490 | -115.15659 | 34812 ft | 564 kts | 112° |
| 2026-05-04 02:38 | 33.60774 | -115.06398 | 34797 ft | 573 kts | 104° |
| 2026-05-04 02:39 | 33.60297 | -115.01651 | 34525 ft | 575 kts | 98° |
| 2026-05-04 02:39 | 33.60095 | -114.96905 | 34235 ft | 576 kts | 96° |
| 2026-05-04 02:39 | 33.59996 | -114.92088 | 33936 ft | 573 kts | 95° |
| 2026-05-04 02:39 | 33.59921 | -114.87338 | 33643 ft | 569 kts | 94° |
| 2026-05-04 02:40 | 33.59804 | -114.82637 | 33354 ft | 570 kts | 96° |
| 2026-05-04 02:40 | 33.59553 | -114.77895 | 33062 ft | 570 kts | 100° |
| 2026-05-04 02:40 | 33.59045 | -114.73217 | 32828 ft | 566 kts | 104° |
| 2026-05-04 02:40 | 33.58277 | -114.68656 | 32600 ft | 561 kts | 109° |
| 2026-05-04 02:41 | 33.57379 | -114.64098 | 32314 ft | 559 kts | 109° |
| 2026-05-04 02:41 | 33.56455 | -114.59628 | 31795 ft | 559 kts | 109° |
| 2026-05-04 02:41 | 33.55521 | -114.55068 | 31092 ft | 559 kts | 108° |
| 2026-05-04 02:41 | 33.54627 | -114.50568 | 30308 ft | 560 kts | 107° |
| 2026-05-04 02:42 | 33.53732 | -114.46051 | 29451 ft | 562 kts | 107° |
| 2026-05-04 02:42 | 33.52853 | -114.41534 | 28567 ft | 562 kts | 107° |
| 2026-05-04 02:42 | 33.51964 | -114.36978 | 27664 ft | 561 kts | 107° |
| 2026-05-04 02:42 | 33.51075 | -114.32447 | 26800 ft | 557 kts | 107° |
| 2026-05-04 02:43 | 33.50194 | -114.27957 | 26252 ft | 546 kts | 107° |
| 2026-05-04 02:43 | 33.49335 | -114.23611 | 25724 ft | 536 kts | 107° |
| 2026-05-04 02:43 | 33.48497 | -114.19369 | 25458 ft | 521 kts | 108° |
| 2026-05-04 02:43 | 33.47665 | -114.15161 | 25193 ft | 510 kts | 107° |
| 2026-05-04 02:44 | 33.46856 | -114.11092 | 24894 ft | 499 kts | 107° |
| 2026-05-04 02:44 | 33.46067 | -114.07145 | 24830 ft | 482 kts | 107° |
| 2026-05-04 02:44 | 33.45303 | -114.03310 | 24846 ft | 471 kts | 108° |
| 2026-05-04 02:44 | 33.44531 | -113.99496 | 24844 ft | 470 kts | 107° |
| 2026-05-04 02:45 | 33.43774 | -113.95740 | 24844 ft | 470 kts | 107° |
| 2026-05-04 02:45 | 33.43003 | -113.91907 | 24838 ft | 471 kts | 107° |
| 2026-05-04 02:45 | 33.42240 | -113.88091 | 24832 ft | 470 kts | 108° |
| 2026-05-04 02:45 | 33.41483 | -113.84349 | 24832 ft | 470 kts | 107° |
| 2026-05-04 02:46 | 33.40713 | -113.80515 | 24830 ft | 470 kts | 107° |
| 2026-05-04 02:46 | 33.39949 | -113.76726 | 24827 ft | 470 kts | 107° |
| 2026-05-04 02:46 | 33.39182 | -113.72945 | 24816 ft | 470 kts | 107° |
| 2026-05-04 02:46 | 33.38412 | -113.69133 | 24782 ft | 470 kts | 107° |
| 2026-05-04 02:47 | 33.37653 | -113.65383 | 24373 ft | 471 kts | 107° |
| 2026-05-04 02:47 | 33.36886 | -113.61600 | 23811 ft | 469 kts | 107° |
| 2026-05-04 02:47 | 33.36120 | -113.57812 | 23299 ft | 464 kts | 107° |
| 2026-05-04 02:47 | 33.35434 | -113.54456 | 22864 ft | 460 kts | 107° |
| 2026-05-04 02:48 | 33.34701 | -113.50865 | 22403 ft | 456 kts | 107° |
| 2026-05-04 02:48 | 33.33951 | -113.47186 | 21930 ft | 452 kts | 107° |
| 2026-05-04 02:48 | 33.33283 | -113.43581 | 21633 ft | 443 kts | 104° |
| 2026-05-04 02:48 | 33.32659 | -113.39979 | 21651 ft | 441 kts | 105° |
| 2026-05-04 02:49 | 33.32040 | -113.36368 | 21674 ft | 441 kts | 105° |
| 2026-05-04 02:49 | 33.31429 | -113.32822 | 21671 ft | 441 kts | 105° |
| 2026-05-04 02:49 | 33.30808 | -113.29227 | 21254 ft | 441 kts | 105° |
| 2026-05-04 02:49 | 33.30189 | -113.25646 | 20771 ft | 438 kts | 105° |
| 2026-05-04 02:50 | 33.29599 | -113.22100 | 20300 ft | 435 kts | 103° |
| 2026-05-04 02:50 | 33.29085 | -113.18596 | 19845 ft | 432 kts | 103° |
| 2026-05-04 02:50 | 33.28586 | -113.15076 | 19385 ft | 428 kts | 103° |
| 2026-05-04 02:50 | 33.28091 | -113.11573 | 18994 ft | 423 kts | 102° |
| 2026-05-04 02:51 | 33.27661 | -113.08144 | 18787 ft | 414 kts | 99° |
| 2026-05-04 02:51 | 33.27482 | -113.04778 | 18699 ft | 403 kts | 93° |
| 2026-05-04 02:51 | 33.27521 | -113.01442 | 18720 ft | 400 kts | 90° |
| 2026-05-04 02:51 | 33.27620 | -112.98154 | 18636 ft | 402 kts | 90° |
| 2026-05-04 02:52 | 33.27726 | -112.94805 | 18191 ft | 401 kts | 90° |
| 2026-05-04 02:52 | 33.27822 | -112.91511 | 17766 ft | 399 kts | 90° |
| 2026-05-04 02:52 | 33.27907 | -112.88227 | 17349 ft | 397 kts | 91° |
| 2026-05-04 02:52 | 33.27987 | -112.84939 | 17095 ft | 388 kts | 90° |
| 2026-05-04 02:53 | 33.28099 | -112.81807 | 16944 ft | 377 kts | 88° |
| 2026-05-04 02:53 | 33.28359 | -112.78720 | 16944 ft | 365 kts | 86° |
| 2026-05-04 02:53 | 33.28642 | -112.75747 | 16926 ft | 364 kts | 86° |
| 2026-05-04 02:53 | 33.28932 | -112.72757 | 16533 ft | 365 kts | 85° |
| 2026-05-04 02:54 | 33.29221 | -112.69737 | 16129 ft | 364 kts | 86° |
| 2026-05-04 02:54 | 33.29507 | -112.66759 | 15740 ft | 362 kts | 86° |
| 2026-05-04 02:54 | 33.29787 | -112.63766 | 15454 ft | 357 kts | 86° |
| 2026-05-04 02:54 | 33.30064 | -112.60825 | 15048 ft | 356 kts | 86° |
| 2026-05-04 02:55 | 33.30600 | -112.55068 | 14471 ft | 347 kts | 86° |
| 2026-05-04 02:55 | 33.30862 | -112.52219 | 14182 ft | 342 kts | 86° |
| 2026-05-04 02:55 | 33.31119 | -112.49415 | 13908 ft | 338 kts | 86° |
| 2026-05-04 02:56 | 33.31371 | -112.46669 | 13626 ft | 333 kts | 87° |
| 2026-05-04 02:56 | 33.31630 | -112.43909 | 13362 ft | 329 kts | 87° |
| 2026-05-04 02:56 | 33.31877 | -112.41212 | 13088 ft | 325 kts | 87° |
| 2026-05-04 02:56 | 33.32119 | -112.38553 | 12781 ft | 322 kts | 88° |
| 2026-05-04 02:57 | 33.32359 | -112.35910 | 12455 ft | 321 kts | 87° |
| 2026-05-04 02:57 | 33.32594 | -112.33260 | 12148 ft | 318 kts | 88° |
| 2026-05-04 02:57 | 33.32838 | -112.30649 | 11842 ft | 316 kts | 88° |
| 2026-05-04 02:57 | 33.33075 | -112.28066 | 11514 ft | 315 kts | 88° |
| 2026-05-04 02:58 | 33.33316 | -112.25471 | 11194 ft | 313 kts | 88° |
| 2026-05-04 02:58 | 33.33541 | -112.22910 | 10883 ft | 310 kts | 88° |
| 2026-05-04 02:58 | 33.33776 | -112.20344 | 10582 ft | 308 kts | 88° |
| 2026-05-04 02:58 | 33.34002 | -112.17830 | 10290 ft | 304 kts | 88° |
| 2026-05-04 02:59 | 33.34220 | -112.15357 | 10030 ft | 297 kts | 88° |
| 2026-05-04 02:59 | 33.34438 | -112.12932 | 9593 ft | 288 kts | 88° |
| 2026-05-04 02:59 | 33.34646 | -112.10626 | 9211 ft | 276 kts | 88° |
| 2026-05-04 02:59 | 33.34766 | -112.08402 | 9081 ft | 256 kts | 95° |
| 2026-05-04 03:00 | 33.34752 | -112.06318 | 8948 ft | 252 kts | 96° |
| 2026-05-04 03:00 | 33.34716 | -112.04234 | 8705 ft | 249 kts | 96° |
| 2026-05-04 03:00 | 33.34685 | -112.02151 | 8413 ft | 248 kts | 96° |
| 2026-05-04 03:00 | 33.34654 | -112.00092 | 8091 ft | 248 kts | 96° |
| 2026-05-04 03:01 | 33.34625 | -111.98034 | 7812 ft | 247 kts | 97° |
| 2026-05-04 03:01 | 33.34595 | -111.95981 | 7560 ft | 248 kts | 97° |
| 2026-05-04 03:01 | 33.34566 | -111.93925 | 7174 ft | 252 kts | 97° |
| 2026-05-04 03:01 | 33.34562 | -111.91806 | 6783 ft | 257 kts | 95° |
| 2026-05-04 03:02 | 33.34608 | -111.89665 | 6387 ft | 261 kts | 94° |
| 2026-05-04 03:02 | 33.34662 | -111.87495 | 5994 ft | 265 kts | 93° |
| 2026-05-04 03:02 | 33.34716 | -111.85326 | 5589 ft | 255 kts | 93° |
| 2026-05-04 03:02 | 33.34767 | -111.83243 | 5189 ft | 249 kts | 94° |
| 2026-05-04 03:03 | 33.34891 | -111.81194 | 4786 ft | 250 kts | 80° |
| 2026-05-04 03:03 | 33.35788 | -111.79406 | 4362 ft | 256 kts | 38° |
| 2026-05-04 03:03 | 33.37371 | -111.78667 | 4090 ft | 242 kts | 355° |
| 2026-05-04 03:03 | 33.38924 | -111.79106 | 3869 ft | 224 kts | 330° |
| 2026-05-04 03:04 | 33.40300 | -111.79892 | 3634 ft | 216 kts | 329° |
| 2026-05-04 03:04 | 33.41642 | -111.80627 | 3473 ft | 203 kts | 328° |
| 2026-05-04 03:04 | 33.42636 | -111.81646 | 3214 ft | 179 kts | 291° |
| 2026-05-04 03:04 | 33.42904 | -111.82969 | 3097 ft | 151 kts | 266° |
| 2026-05-04 03:05 | 33.42930 | -111.84173 | 3096 ft | 138 kts | 262° |
| 2026-05-04 03:05 | 33.42918 | -111.85261 | 3087 ft | 126 kts | 261° |
| 2026-05-04 03:05 | 33.42900 | -111.86296 | 3079 ft | 126 kts | 262° |
| 2026-05-04 03:05 | 33.42891 | -111.87348 | 3070 ft | 126 kts | 262° |
| 2026-05-04 03:06 | 33.42885 | -111.88396 | 2921 ft | 126 kts | 263° |
| 2026-05-04 03:06 | 33.42884 | -111.89451 | 2763 ft | 126 kts | 263° |
| 2026-05-04 03:06 | 33.42884 | -111.90494 | 2599 ft | 127 kts | 263° |
| 2026-05-04 03:06 | 33.42888 | -111.91543 | 2445 ft | 127 kts | 263° |
| 2026-05-04 03:07 | 33.42887 | -111.92597 | 2289 ft | 126 kts | 264° |
| 2026-05-04 03:07 | 33.42887 | -111.93655 | 2121 ft | 127 kts | 263° |
| 2026-05-04 03:07 | 33.42894 | -111.94708 | 1970 ft | 126 kts | 264° |
| 2026-05-04 03:07 | 33.42912 | -111.95758 | 1803 ft | 125 kts | 263° |
| 2026-05-04 03:08 | 33.42881 | -111.96817 | 1652 ft | 130 kts | 264° |
| 2026-05-04 03:08 | 33.42894 | -111.97902 | 1508 ft | 131 kts | 265° |
| 2026-05-04 03:08 | 33.42883 | -111.99040 | 1349 ft | 139 kts | 266° |
| 2026-05-04 03:08 | 33.42886 | -112.00184 | 1204 ft | 136 kts | 267° |
| 2026-05-04 03:09 | 33.42882 | -112.01268 | 1129 ft | 116 kts | 269° |
| 2026-05-04 03:09 | 33.42884 | -112.02030 | 1125 ft | 66 kts | 269° |
| 2026-05-04 03:09 | 33.42889 | -112.02395 | 1125 ft | 34 kts | 276° |
| 2026-05-04 03:09 | 33.42940 | -112.02525 | 1125 ft | 8 kts | 319° |
| 2026-05-04 03:10 | 33.42989 | -112.02524 | 1125 ft | 8 kts | 55° |
| 2026-05-04 03:10 | 33.43001 | -112.02459 | 1125 ft | 11 kts | 92° |
| 2026-05-04 03:10 | 33.42992 | -112.02302 | 1125 ft | 21 kts | 93° |
| 2026-05-04 03:10 | 33.42992 | -112.02129 | 1125 ft | 19 kts | 87° |
| 2026-05-04 03:11 | 33.42997 | -112.01970 | 1125 ft | 18 kts | 90° |
| 2026-05-04 03:11 | 33.42995 | -112.01830 | 1128 ft | 17 kts | 90° |
| 2026-05-04 03:11 | 33.42997 | -112.01611 | 1128 ft | 29 kts | 91° |
| 2026-05-04 03:11 | 33.42995 | -112.01381 | 1130 ft | 25 kts | 89° |
| 2026-05-04 03:12 | 33.42993 | -112.01178 | 1130 ft | 23 kts | 91° |
| 2026-05-04 03:12 | 33.42994 | -112.00991 | 1130 ft | 21 kts | 89° |
| 2026-05-04 03:12 | 33.42994 | -112.00814 | 1130 ft | 20 kts | 89° |
| 2026-05-04 03:12 | 33.42995 | -112.00652 | 1130 ft | 18 kts | 89° |
| 2026-05-04 03:13 | 33.42994 | -112.00490 | 1130 ft | 25 kts | 91° |
| 2026-05-04 03:13 | 33.43056 | -112.00330 | 1130 ft | 22 kts | 9° |
| 2026-05-04 03:13 | 33.43191 | -112.00279 | 1131 ft | 20 kts | 57° |
| 2026-05-04 03:13 | 33.43268 | -112.00161 | 1132 ft | 14 kts | 48° |
| 2026-05-04 03:14 | 33.43301 | -112.00058 | 1132 ft | 12 kts | 31° |
| 2026-05-04 03:14 | 33.43381 | -112.00036 | 1133 ft | 11 kts | 44° |
| 2026-05-04 03:14 | 33.43393 | -111.99992 | 1133 ft | 0 kts | 85° |